Terminal Aerodrome Forecast
Issued by NWS Green Bay, WI

Home | Current Version | Previous Version | Graphics & Text | Print | Product List | Glossary On
Versions: 1 2 3 4 5 6 7 8 9 10 11 12 13 14 15 16 17 18 19 20 21 22 23 24 25 26 27 28 29
000
FTUS43 KGRB 140500
TAFGRB
TAF
KGRB 140520Z 1406/1506 18005KT P6SM OVC050
     FM141200 22006KT P6SM SCT100 BKN200
     FM141500 22010G16KT P6SM SCT090 BKN100
     FM142300 21005KT P6SM SCT070 BKN100=

USA.gov is the U.S. government's official web portal to all federal, state and local government web resources and services.